sensor_id;sensor_type;location;lat;lon;timestamp;P1;durP1;ratioP1;P2;durP2;ratioP2
62880;SDS011;48969;49.934;8.596;2023-07-20T00:01:24;4.47;;;1.88;;
62880;SDS011;48969;49.934;8.596;2023-07-20T00:03:50;4.43;;;2.05;;
62880;SDS011;48969;49.934;8.596;2023-07-20T00:06:23;3.22;;;1.90;;
62880;SDS011;48969;49.934;8.596;2023-07-20T00:08:52;3.58;;;2.00;;
62880;SDS011;48969;49.934;8.596;2023-07-20T00:11:18;4.95;;;1.85;;
62880;SDS011;48969;49.934;8.596;2023-07-20T00:13:44;4.20;;;1.92;;
62880;SDS011;48969;49.934;8.596;2023-07-20T00:16:09;3.90;;;1.77;;
62880;SDS011;48969;49.934;8.596;2023-07-20T00:18:34;3.42;;;1.98;;
62880;SDS011;48969;49.934;8.596;2023-07-20T00:21:00;2.90;;;1.70;;
62880;SDS011;48969;49.934;8.596;2023-07-20T00:23:26;5.80;;;2.00;;
62880;SDS011;48969;49.934;8.596;2023-07-20T00:25:51;2.90;;;1.90;;
62880;SDS011;48969;49.934;8.596;2023-07-20T00:28:16;2.85;;;1.90;;
62880;SDS011;48969;49.934;8.596;2023-07-20T00:30:42;3.92;;;2.00;;
62880;SDS011;48969;49.934;8.596;2023-07-20T00:33:10;3.28;;;2.00;;
62880;SDS011;48969;49.934;8.596;2023-07-20T00:38:30;3.17;;;2.05;;
62880;SDS011;48969;49.934;8.596;2023-07-20T00:40:55;4.60;;;2.28;;
62880;SDS011;48969;49.934;8.596;2023-07-20T00:43:20;3.15;;;2.10;;
62880;SDS011;48969;49.934;8.596;2023-07-20T00:45:46;3.85;;;2.10;;
62880;SDS011;48969;49.934;8.596;2023-07-20T00:48:11;3.15;;;2.00;;
62880;SDS011;48969;49.934;8.596;2023-07-20T00:50:37;2.95;;;1.85;;
62880;SDS011;48969;49.934;8.596;2023-07-20T00:53:04;2.53;;;1.92;;
62880;SDS011;48969;49.934;8.596;2023-07-20T00:55:30;2.78;;;2.22;;
62880;SDS011;48969;49.934;8.596;2023-07-20T00:57:55;4.70;;;2.20;;
62880;SDS011;48969;49.934;8.596;2023-07-20T01:00:20;3.85;;;2.05;;
62880;SDS011;48969;49.934;8.596;2023-07-20T01:02:46;2.85;;;1.90;;
62880;SDS011;48969;49.934;8.596;2023-07-20T01:05:12;3.53;;;2.33;;
62880;SDS011;48969;49.934;8.596;2023-07-20T01:07:39;4.32;;;2.20;;
62880;SDS011;48969;49.934;8.596;2023-07-20T01:10:18;4.28;;;2.40;;
62880;SDS011;48969;49.934;8.596;2023-07-20T01:12:48;3.28;;;2.03;;
62880;SDS011;48969;49.934;8.596;2023-07-20T01:15:17;3.67;;;2.28;;
62880;SDS011;48969;49.934;8.596;2023-07-20T01:17:42;3.33;;;2.13;;
62880;SDS011;48969;49.934;8.596;2023-07-20T01:20:10;3.10;;;2.40;;
62880;SDS011;48969;49.934;8.596;2023-07-20T01:25:24;2.97;;;1.98;;
62880;SDS011;48969;49.934;8.596;2023-07-20T01:28:28;3.38;;;2.15;;
62880;SDS011;48969;49.934;8.596;2023-07-20T01:33:42;3.08;;;2.33;;
62880;SDS011;48969;49.934;8.596;2023-07-20T01:36:11;2.65;;;1.88;;
62880;SDS011;48969;49.934;8.596;2023-07-20T01:38:36;4.28;;;2.35;;
62880;SDS011;48969;49.934;8.596;2023-07-20T01:41:02;3.08;;;2.10;;
62880;SDS011;48969;49.934;8.596;2023-07-20T01:43:28;4.13;;;2.40;;
62880;SDS011;48969;49.934;8.596;2023-07-20T01:45:53;3.58;;;2.35;;
62880;SDS011;48969;49.934;8.596;2023-07-20T01:48:18;4.00;;;2.30;;
62880;SDS011;48969;49.934;8.596;2023-07-20T01:50:44;3.25;;;2.38;;
62880;SDS011;48969;49.934;8.596;2023-07-20T01:53:09;2.88;;;2.42;;
62880;SDS011;48969;49.934;8.596;2023-07-20T01:55:35;4.00;;;2.60;;
62880;SDS011;48969;49.934;8.596;2023-07-20T01:58:00;3.63;;;2.40;;
62880;SDS011;48969;49.934;8.596;2023-07-20T02:00:26;5.15;;;2.00;;
62880;SDS011;48969;49.934;8.596;2023-07-20T02:02:52;5.28;;;2.17;;
62880;SDS011;48969;49.934;8.596;2023-07-20T02:05:17;5.07;;;2.50;;
62880;SDS011;48969;49.934;8.596;2023-07-20T02:07:43;3.35;;;2.20;;
62880;SDS011;48969;49.934;8.596;2023-07-20T02:10:08;3.85;;;2.38;;
62880;SDS011;48969;49.934;8.596;2023-07-20T02:12:34;3.20;;;2.20;;
62880;SDS011;48969;49.934;8.596;2023-07-20T02:14:59;3.38;;;2.20;;
62880;SDS011;48969;49.934;8.596;2023-07-20T02:17:24;4.85;;;2.72;;
62880;SDS011;48969;49.934;8.596;2023-07-20T02:19:51;5.20;;;2.60;;
62880;SDS011;48969;49.934;8.596;2023-07-20T02:22:18;5.32;;;2.60;;
62880;SDS011;48969;49.934;8.596;2023-07-20T02:24:43;5.78;;;2.53;;
62880;SDS011;48969;49.934;8.596;2023-07-20T02:27:08;5.03;;;2.30;;
62880;SDS011;48969;49.934;8.596;2023-07-20T02:29:34;3.80;;;2.67;;
62880;SDS011;48969;49.934;8.596;2023-07-20T02:31:59;3.88;;;2.50;;
62880;SDS011;48969;49.934;8.596;2023-07-20T02:34:24;3.78;;;2.22;;
62880;SDS011;48969;49.934;8.596;2023-07-20T02:36:50;5.97;;;2.63;;
62880;SDS011;48969;49.934;8.596;2023-07-20T02:39:15;4.55;;;2.50;;
62880;SDS011;48969;49.934;8.596;2023-07-20T02:41:41;3.05;;;2.28;;
62880;SDS011;48969;49.934;8.596;2023-07-20T02:44:06;2.75;;;2.15;;
62880;SDS011;48969;49.934;8.596;2023-07-20T02:46:32;3.10;;;2.10;;
62880;SDS011;48969;49.934;8.596;2023-07-20T02:48:57;2.90;;;2.42;;
62880;SDS011;48969;49.934;8.596;2023-07-20T02:51:22;3.65;;;2.05;;
62880;SDS011;48969;49.934;8.596;2023-07-20T02:53:48;4.57;;;2.78;;
62880;SDS011;48969;49.934;8.596;2023-07-20T02:56:13;3.97;;;2.67;;
62880;SDS011;48969;49.934;8.596;2023-07-20T02:58:40;3.00;;;2.53;;
62880;SDS011;48969;49.934;8.596;2023-07-20T03:01:08;3.47;;;2.38;;
62880;SDS011;48969;49.934;8.596;2023-07-20T03:03:34;5.05;;;2.50;;
62880;SDS011;48969;49.934;8.596;2023-07-20T03:06:03;3.58;;;2.40;;
62880;SDS011;48969;49.934;8.596;2023-07-20T03:08:29;3.90;;;2.00;;
62880;SDS011;48969;49.934;8.596;2023-07-20T03:10:55;2.97;;;2.38;;
62880;SDS011;48969;49.934;8.596;2023-07-20T03:13:20;2.97;;;2.17;;
62880;SDS011;48969;49.934;8.596;2023-07-20T03:15:45;3.42;;;2.22;;
62880;SDS011;48969;49.934;8.596;2023-07-20T03:18:10;4.60;;;2.47;;
62880;SDS011;48969;49.934;8.596;2023-07-20T03:20:36;2.85;;;2.00;;
62880;SDS011;48969;49.934;8.596;2023-07-20T03:23:02;3.70;;;1.95;;
62880;SDS011;48969;49.934;8.596;2023-07-20T03:25:27;4.68;;;2.35;;
62880;SDS011;48969;49.934;8.596;2023-07-20T03:27:52;2.92;;;1.92;;
62880;SDS011;48969;49.934;8.596;2023-07-20T03:30:18;4.18;;;2.50;;
62880;SDS011;48969;49.934;8.596;2023-07-20T03:32:43;3.53;;;2.78;;
62880;SDS011;48969;49.934;8.596;2023-07-20T03:35:08;4.55;;;2.60;;
62880;SDS011;48969;49.934;8.596;2023-07-20T03:37:34;4.32;;;2.90;;
62880;SDS011;48969;49.934;8.596;2023-07-20T03:40:01;3.78;;;2.60;;
62880;SDS011;48969;49.934;8.596;2023-07-20T03:42:27;4.32;;;2.33;;
62880;SDS011;48969;49.934;8.596;2023-07-20T03:44:53;4.10;;;2.47;;
62880;SDS011;48969;49.934;8.596;2023-07-20T03:47:18;3.25;;;2.20;;
62880;SDS011;48969;49.934;8.596;2023-07-20T03:49:43;3.70;;;2.10;;
62880;SDS011;48969;49.934;8.596;2023-07-20T03:52:09;3.72;;;2.47;;
62880;SDS011;48969;49.934;8.596;2023-07-20T03:54:34;3.05;;;2.30;;
62880;SDS011;48969;49.934;8.596;2023-07-20T03:56:59;3.70;;;2.15;;
62880;SDS011;48969;49.934;8.596;2023-07-20T03:59:25;3.63;;;2.13;;
62880;SDS011;48969;49.934;8.596;2023-07-20T04:01:51;2.70;;;2.03;;
62880;SDS011;48969;49.934;8.596;2023-07-20T04:04:16;4.90;;;2.33;;
62880;SDS011;48969;49.934;8.596;2023-07-20T04:06:42;3.92;;;2.30;;
62880;SDS011;48969;49.934;8.596;2023-07-20T04:09:09;3.65;;;2.40;;
62880;SDS011;48969;49.934;8.596;2023-07-20T04:11:35;3.55;;;2.15;;
62880;SDS011;48969;49.934;8.596;2023-07-20T04:14:00;2.72;;;2.10;;
62880;SDS011;48969;49.934;8.596;2023-07-20T04:16:25;4.18;;;2.60;;
62880;SDS011;48969;49.934;8.596;2023-07-20T04:18:51;3.80;;;1.98;;
62880;SDS011;48969;49.934;8.596;2023-07-20T04:21:17;3.78;;;2.42;;
62880;SDS011;48969;49.934;8.596;2023-07-20T04:23:42;2.63;;;2.15;;
62880;SDS011;48969;49.934;8.596;2023-07-20T04:26:07;3.65;;;2.60;;
62880;SDS011;48969;49.934;8.596;2023-07-20T04:28:33;3.50;;;2.40;;
62880;SDS011;48969;49.934;8.596;2023-07-20T04:31:11;3.10;;;2.10;;
62880;SDS011;48969;49.934;8.596;2023-07-20T04:33:37;2.78;;;2.20;;
62880;SDS011;48969;49.934;8.596;2023-07-20T04:36:03;2.88;;;2.35;;
62880;SDS011;48969;49.934;8.596;2023-07-20T04:38:28;3.85;;;2.72;;
62880;SDS011;48969;49.934;8.596;2023-07-20T04:40:53;5.25;;;2.33;;
62880;SDS011;48969;49.934;8.596;2023-07-20T04:43:18;3.63;;;2.60;;
62880;SDS011;48969;49.934;8.596;2023-07-20T04:45:44;4.80;;;2.67;;
62880;SDS011;48969;49.934;8.596;2023-07-20T04:48:11;4.00;;;2.50;;
62880;SDS011;48969;49.934;8.596;2023-07-20T04:50:38;4.97;;;2.50;;
62880;SDS011;48969;49.934;8.596;2023-07-20T04:53:05;8.48;;;3.58;;
62880;SDS011;48969;49.934;8.596;2023-07-20T04:55:31;6.82;;;3.05;;
62880;SDS011;48969;49.934;8.596;2023-07-20T04:57:58;4.55;;;2.95;;
62880;SDS011;48969;49.934;8.596;2023-07-20T05:00:25;4.32;;;2.50;;
62880;SDS011;48969;49.934;8.596;2023-07-20T05:02:50;5.13;;;3.03;;
62880;SDS011;48969;49.934;8.596;2023-07-20T05:05:16;3.38;;;2.17;;
62880;SDS011;48969;49.934;8.596;2023-07-20T05:07:41;5.05;;;3.00;;
62880;SDS011;48969;49.934;8.596;2023-07-20T05:10:06;4.13;;;2.47;;
62880;SDS011;48969;49.934;8.596;2023-07-20T05:12:32;4.32;;;2.63;;
62880;SDS011;48969;49.934;8.596;2023-07-20T05:14:57;2.85;;;2.28;;
62880;SDS011;48969;49.934;8.596;2023-07-20T05:17:23;4.78;;;2.90;;
62880;SDS011;48969;49.934;8.596;2023-07-20T05:19:49;4.43;;;2.53;;
62880;SDS011;48969;49.934;8.596;2023-07-20T05:22:15;4.00;;;2.40;;
62880;SDS011;48969;49.934;8.596;2023-07-20T05:24:40;5.43;;;2.63;;
62880;SDS011;48969;49.934;8.596;2023-07-20T05:27:05;5.68;;;2.47;;
62880;SDS011;48969;49.934;8.596;2023-07-20T05:29:30;5.22;;;2.50;;
62880;SDS011;48969;49.934;8.596;2023-07-20T05:31:56;3.63;;;2.50;;
62880;SDS011;48969;49.934;8.596;2023-07-20T05:34:22;3.50;;;2.30;;
62880;SDS011;48969;49.934;8.596;2023-07-20T05:36:47;9.68;;;3.53;;
62880;SDS011;48969;49.934;8.596;2023-07-20T05:39:12;3.90;;;2.10;;
62880;SDS011;48969;49.934;8.596;2023-07-20T05:41:37;5.22;;;2.72;;
62880;SDS011;48969;49.934;8.596;2023-07-20T05:44:03;5.47;;;2.80;;
62880;SDS011;48969;49.934;8.596;2023-07-20T05:46:28;4.80;;;2.67;;
62880;SDS011;48969;49.934;8.596;2023-07-20T05:48:53;5.03;;;2.47;;
62880;SDS011;48969;49.934;8.596;2023-07-20T05:51:19;3.97;;;2.65;;
62880;SDS011;48969;49.934;8.596;2023-07-20T05:53:44;3.47;;;2.33;;
62880;SDS011;48969;49.934;8.596;2023-07-20T05:56:09;4.50;;;2.72;;
62880;SDS011;48969;49.934;8.596;2023-07-20T05:58:35;4.22;;;2.38;;
62880;SDS011;48969;49.934;8.596;2023-07-20T06:01:01;3.80;;;2.42;;
62880;SDS011;48969;49.934;8.596;2023-07-20T06:03:27;4.28;;;2.22;;
62880;SDS011;48969;49.934;8.596;2023-07-20T06:05:57;4.63;;;2.53;;
62880;SDS011;48969;49.934;8.596;2023-07-20T06:08:24;3.45;;;2.40;;
62880;SDS011;48969;49.934;8.596;2023-07-20T06:10:49;3.40;;;2.40;;
62880;SDS011;48969;49.934;8.596;2023-07-20T06:13:17;3.40;;;2.53;;
62880;SDS011;48969;49.934;8.596;2023-07-20T06:15:42;5.43;;;2.28;;
62880;SDS011;48969;49.934;8.596;2023-07-20T06:18:08;4.13;;;2.33;;
62880;SDS011;48969;49.934;8.596;2023-07-20T06:20:34;4.68;;;2.65;;
62880;SDS011;48969;49.934;8.596;2023-07-20T06:22:59;4.20;;;2.70;;
62880;SDS011;48969;49.934;8.596;2023-07-20T06:25:24;4.13;;;2.33;;
62880;SDS011;48969;49.934;8.596;2023-07-20T06:27:50;4.97;;;2.63;;
62880;SDS011;48969;49.934;8.596;2023-07-20T06:30:19;3.83;;;2.40;;
62880;SDS011;48969;49.934;8.596;2023-07-20T06:32:45;4.95;;;2.47;;
62880;SDS011;48969;49.934;8.596;2023-07-20T06:35:10;3.35;;;2.30;;
62880;SDS011;48969;49.934;8.596;2023-07-20T06:37:35;3.95;;;2.40;;
62880;SDS011;48969;49.934;8.596;2023-07-20T06:40:04;3.13;;;2.08;;
62880;SDS011;48969;49.934;8.596;2023-07-20T06:42:30;3.38;;;2.22;;
62880;SDS011;48969;49.934;8.596;2023-07-20T06:44:56;4.43;;;2.30;;
62880;SDS011;48969;49.934;8.596;2023-07-20T06:47:22;2.75;;;2.20;;
62880;SDS011;48969;49.934;8.596;2023-07-20T06:49:47;5.40;;;2.70;;
62880;SDS011;48969;49.934;8.596;2023-07-20T06:52:13;7.35;;;2.70;;
62880;SDS011;48969;49.934;8.596;2023-07-20T06:54:38;7.10;;;2.78;;
62880;SDS011;48969;49.934;8.596;2023-07-20T06:57:04;3.22;;;2.38;;
62880;SDS011;48969;49.934;8.596;2023-07-20T06:59:30;4.93;;;2.20;;
62880;SDS011;48969;49.934;8.596;2023-07-20T07:01:55;5.07;;;2.35;;
62880;SDS011;48969;49.934;8.596;2023-07-20T07:04:21;3.42;;;2.25;;
62880;SDS011;48969;49.934;8.596;2023-07-20T07:06:46;3.55;;;2.08;;
62880;SDS011;48969;49.934;8.596;2023-07-20T07:09:11;5.55;;;2.33;;
62880;SDS011;48969;49.934;8.596;2023-07-20T07:11:37;2.97;;;2.20;;
62880;SDS011;48969;49.934;8.596;2023-07-20T07:14:02;4.07;;;2.30;;
62880;SDS011;48969;49.934;8.596;2023-07-20T07:16:27;3.30;;;2.40;;
62880;SDS011;48969;49.934;8.596;2023-07-20T07:18:53;3.35;;;2.05;;
62880;SDS011;48969;49.934;8.596;2023-07-20T07:21:18;4.45;;;2.45;;
62880;SDS011;48969;49.934;8.596;2023-07-20T07:23:43;4.70;;;2.08;;
62880;SDS011;48969;49.934;8.596;2023-07-20T07:26:10;3.28;;;1.90;;
62880;SDS011;48969;49.934;8.596;2023-07-20T07:28:36;4.20;;;2.20;;
62880;SDS011;48969;49.934;8.596;2023-07-20T07:31:04;3.80;;;2.47;;
62880;SDS011;48969;49.934;8.596;2023-07-20T07:33:30;4.00;;;2.58;;
62880;SDS011;48969;49.934;8.596;2023-07-20T07:35:55;4.88;;;2.20;;
62880;SDS011;48969;49.934;8.596;2023-07-20T07:38:21;3.25;;;2.35;;
62880;SDS011;48969;49.934;8.596;2023-07-20T07:40:46;3.20;;;2.25;;
62880;SDS011;48969;49.934;8.596;2023-07-20T07:43:11;5.65;;;2.53;;
62880;SDS011;48969;49.934;8.596;2023-07-20T07:45:39;3.90;;;2.38;;
62880;SDS011;48969;49.934;8.596;2023-07-20T07:48:04;3.53;;;2.15;;
62880;SDS011;48969;49.934;8.596;2023-07-20T07:50:30;4.55;;;2.10;;
62880;SDS011;48969;49.934;8.596;2023-07-20T07:52:56;3.60;;;1.95;;
62880;SDS011;48969;49.934;8.596;2023-07-20T07:55:22;4.68;;;2.58;;
62880;SDS011;48969;49.934;8.596;2023-07-20T07:57:47;4.28;;;2.20;;
62880;SDS011;48969;49.934;8.596;2023-07-20T08:00:13;4.85;;;2.28;;
62880;SDS011;48969;49.934;8.596;2023-07-20T08:02:42;4.22;;;2.70;;
62880;SDS011;48969;49.934;8.596;2023-07-20T08:05:08;2.95;;;2.00;;
62880;SDS011;48969;49.934;8.596;2023-07-20T08:07:36;2.95;;;2.10;;
62880;SDS011;48969;49.934;8.596;2023-07-20T08:10:01;3.35;;;2.03;;
62880;SDS011;48969;49.934;8.596;2023-07-20T08:12:27;5.22;;;2.20;;
62880;SDS011;48969;49.934;8.596;2023-07-20T08:14:52;5.25;;;2.40;;
62880;SDS011;48969;49.934;8.596;2023-07-20T08:17:17;2.83;;;1.98;;
62880;SDS011;48969;49.934;8.596;2023-07-20T08:19:43;3.60;;;2.10;;
62880;SDS011;48969;49.934;8.596;2023-07-20T08:22:09;3.97;;;2.33;;
62880;SDS011;48969;49.934;8.596;2023-07-20T08:24:34;4.10;;;2.20;;
62880;SDS011;48969;49.934;8.596;2023-07-20T08:27:00;3.25;;;2.15;;
62880;SDS011;48969;49.934;8.596;2023-07-20T08:29:25;3.75;;;2.25;;
62880;SDS011;48969;49.934;8.596;2023-07-20T08:31:51;3.92;;;2.20;;
62880;SDS011;48969;49.934;8.596;2023-07-20T08:34:16;4.70;;;2.42;;
62880;SDS011;48969;49.934;8.596;2023-07-20T08:36:41;2.85;;;1.90;;
62880;SDS011;48969;49.934;8.596;2023-07-20T08:39:07;3.72;;;2.03;;
62880;SDS011;48969;49.934;8.596;2023-07-20T08:41:33;5.40;;;2.50;;
62880;SDS011;48969;49.934;8.596;2023-07-20T08:43:59;3.35;;;2.00;;
62880;SDS011;48969;49.934;8.596;2023-07-20T08:46:26;2.80;;;2.20;;
62880;SDS011;48969;49.934;8.596;2023-07-20T08:48:53;4.57;;;2.20;;
62880;SDS011;48969;49.934;8.596;2023-07-20T08:51:20;5.85;;;2.33;;
62880;SDS011;48969;49.934;8.596;2023-07-20T08:53:46;4.45;;;2.50;;
62880;SDS011;48969;49.934;8.596;2023-07-20T08:56:14;3.83;;;2.05;;
62880;SDS011;48969;49.934;8.596;2023-07-20T08:58:41;4.47;;;2.33;;
62880;SDS011;48969;49.934;8.596;2023-07-20T09:01:08;4.20;;;2.70;;
62880;SDS011;48969;49.934;8.596;2023-07-20T09:03:35;4.10;;;2.45;;
62880;SDS011;48969;49.934;8.596;2023-07-20T09:06:03;2.92;;;2.33;;
62880;SDS011;48969;49.934;8.596;2023-07-20T09:08:28;3.67;;;2.20;;
62880;SDS011;48969;49.934;8.596;2023-07-20T09:10:53;3.03;;;2.08;;
62880;SDS011;48969;49.934;8.596;2023-07-20T09:13:19;2.95;;;2.00;;
62880;SDS011;48969;49.934;8.596;2023-07-20T09:15:47;2.95;;;2.15;;
62880;SDS011;48969;49.934;8.596;2023-07-20T09:18:22;4.88;;;2.33;;
62880;SDS011;48969;49.934;8.596;2023-07-20T09:20:49;3.42;;;1.80;;
62880;SDS011;48969;49.934;8.596;2023-07-20T09:23:14;2.72;;;1.98;;
62880;SDS011;48969;49.934;8.596;2023-07-20T09:25:39;3.60;;;2.28;;
62880;SDS011;48969;49.934;8.596;2023-07-20T09:28:05;3.58;;;2.53;;
62880;SDS011;48969;49.934;8.596;2023-07-20T09:30:31;2.53;;;1.95;;
62880;SDS011;48969;49.934;8.596;2023-07-20T09:32:56;4.15;;;1.80;;
62880;SDS011;48969;49.934;8.596;2023-07-20T09:35:22;2.70;;;1.98;;
62880;SDS011;48969;49.934;8.596;2023-07-20T09:38:00;2.60;;;1.88;;
62880;SDS011;48969;49.934;8.596;2023-07-20T09:40:27;2.47;;;1.70;;
62880;SDS011;48969;49.934;8.596;2023-07-20T09:42:53;2.35;;;1.63;;
62880;SDS011;48969;49.934;8.596;2023-07-20T09:45:29;2.97;;;1.75;;
62880;SDS011;48969;49.934;8.596;2023-07-20T09:48:02;3.45;;;2.00;;
62880;SDS011;48969;49.934;8.596;2023-07-20T09:50:29;2.60;;;1.60;;
62880;SDS011;48969;49.934;8.596;2023-07-20T09:52:54;3.80;;;1.95;;
62880;SDS011;48969;49.934;8.596;2023-07-20T09:55:20;2.80;;;2.10;;
62880;SDS011;48969;49.934;8.596;2023-07-20T09:57:46;2.38;;;1.77;;
62880;SDS011;48969;49.934;8.596;2023-07-20T10:00:12;2.80;;;2.00;;
62880;SDS011;48969;49.934;8.596;2023-07-20T10:02:44;2.45;;;1.65;;
62880;SDS011;48969;49.934;8.596;2023-07-20T10:05:12;3.55;;;1.67;;
62880;SDS011;48969;49.934;8.596;2023-07-20T10:07:49;3.25;;;1.90;;
62880;SDS011;48969;49.934;8.596;2023-07-20T10:10:16;2.63;;;1.77;;
62880;SDS011;48969;49.934;8.596;2023-07-20T10:12:42;2.75;;;1.70;;
62880;SDS011;48969;49.934;8.596;2023-07-20T10:15:11;2.63;;;1.65;;
62880;SDS011;48969;49.934;8.596;2023-07-20T10:17:45;2.28;;;1.48;;
62880;SDS011;48969;49.934;8.596;2023-07-20T10:20:14;3.13;;;1.70;;
62880;SDS011;48969;49.934;8.596;2023-07-20T10:22:44;2.42;;;1.60;;
62880;SDS011;48969;49.934;8.596;2023-07-20T10:25:12;2.75;;;1.90;;
62880;SDS011;48969;49.934;8.596;2023-07-20T10:27:38;2.75;;;1.60;;
62880;SDS011;48969;49.934;8.596;2023-07-20T10:30:05;2.75;;;1.52;;
62880;SDS011;48969;49.934;8.596;2023-07-20T10:32:31;2.47;;;2.08;;
62880;SDS011;48969;49.934;8.596;2023-07-20T10:34:56;4.18;;;1.70;;
62880;SDS011;48969;49.934;8.596;2023-07-20T10:40:27;3.38;;;1.63;;
62880;SDS011;48969;49.934;8.596;2023-07-20T10:45:35;4.45;;;1.90;;
62880;SDS011;48969;49.934;8.596;2023-07-20T10:48:19;1.85;;;1.70;;
62880;SDS011;48969;49.934;8.596;2023-07-20T10:50:48;2.22;;;1.50;;
62880;SDS011;48969;49.934;8.596;2023-07-20T10:53:35;4.38;;;2.05;;
62880;SDS011;48969;49.934;8.596;2023-07-20T10:56:08;2.88;;;1.60;;
62880;SDS011;48969;49.934;8.596;2023-07-20T10:58:36;2.85;;;1.50;;
62880;SDS011;48969;49.934;8.596;2023-07-20T11:01:02;1.52;;;1.40;;
62880;SDS011;48969;49.934;8.596;2023-07-20T11:08:56;2.63;;;1.42;;
62880;SDS011;48969;49.934;8.596;2023-07-20T11:14:33;2.42;;;1.77;;
62880;SDS011;48969;49.934;8.596;2023-07-20T11:16:47;2.72;;;1.80;;
62880;SDS011;48969;49.934;8.596;2023-07-20T11:19:17;2.10;;;1.70;;
62880;SDS011;48969;49.934;8.596;2023-07-20T11:21:46;2.03;;;1.60;;
62880;SDS011;48969;49.934;8.596;2023-07-20T11:24:14;2.60;;;1.80;;
62880;SDS011;48969;49.934;8.596;2023-07-20T11:26:43;3.42;;;1.60;;
62880;SDS011;48969;49.934;8.596;2023-07-20T11:29:09;2.88;;;1.40;;
62880;SDS011;48969;49.934;8.596;2023-07-20T11:31:38;4.30;;;1.77;;
62880;SDS011;48969;49.934;8.596;2023-07-20T11:34:05;3.10;;;1.73;;
62880;SDS011;48969;49.934;8.596;2023-07-20T11:36:30;3.25;;;1.60;;
62880;SDS011;48969;49.934;8.596;2023-07-20T11:38:56;2.25;;;1.58;;
62880;SDS011;48969;49.934;8.596;2023-07-20T11:41:24;2.00;;;1.52;;
62880;SDS011;48969;49.934;8.596;2023-07-20T11:43:50;1.98;;;1.70;;
62880;SDS011;48969;49.934;8.596;2023-07-20T11:46:15;3.28;;;1.70;;
62880;SDS011;48969;49.934;8.596;2023-07-20T11:48:41;4.80;;;1.75;;
62880;SDS011;48969;49.934;8.596;2023-07-20T11:51:07;2.33;;;1.45;;
62880;SDS011;48969;49.934;8.596;2023-07-20T11:53:38;4.35;;;1.60;;
62880;SDS011;48969;49.934;8.596;2023-07-20T11:56:04;3.10;;;2.15;;
62880;SDS011;48969;49.934;8.596;2023-07-20T11:58:29;2.75;;;1.60;;
62880;SDS011;48969;49.934;8.596;2023-07-20T12:00:54;3.50;;;1.50;;
62880;SDS011;48969;49.934;8.596;2023-07-20T12:03:20;2.22;;;1.35;;
62880;SDS011;48969;49.934;8.596;2023-07-20T12:05:46;3.25;;;2.00;;
62880;SDS011;48969;49.934;8.596;2023-07-20T12:08:11;1.70;;;1.52;;
62880;SDS011;48969;49.934;8.596;2023-07-20T12:10:38;3.28;;;2.00;;
62880;SDS011;48969;49.934;8.596;2023-07-20T12:13:09;2.15;;;1.73;;
62880;SDS011;48969;49.934;8.596;2023-07-20T12:15:36;2.22;;;1.77;;
62880;SDS011;48969;49.934;8.596;2023-07-20T12:18:02;2.08;;;1.60;;
62880;SDS011;48969;49.934;8.596;2023-07-20T12:20:32;2.17;;;1.60;;
62880;SDS011;48969;49.934;8.596;2023-07-20T12:23:01;2.80;;;1.77;;
62880;SDS011;48969;49.934;8.596;2023-07-20T12:25:48;2.45;;;1.75;;
62880;SDS011;48969;49.934;8.596;2023-07-20T12:30:40;2.47;;;1.90;;
62880;SDS011;48969;49.934;8.596;2023-07-20T12:33:06;2.25;;;1.63;;
62880;SDS011;48969;49.934;8.596;2023-07-20T12:35:32;2.53;;;1.63;;
62880;SDS011;48969;49.934;8.596;2023-07-20T12:37:58;2.90;;;1.52;;
62880;SDS011;48969;49.934;8.596;2023-07-20T12:40:23;3.17;;;1.50;;
62880;SDS011;48969;49.934;8.596;2023-07-20T12:42:49;2.40;;;1.70;;
62880;SDS011;48969;49.934;8.596;2023-07-20T12:45:14;2.00;;;1.50;;
62880;SDS011;48969;49.934;8.596;2023-07-20T12:47:40;2.40;;;1.85;;
62880;SDS011;48969;49.934;8.596;2023-07-20T12:50:08;2.95;;;1.50;;
62880;SDS011;48969;49.934;8.596;2023-07-20T12:52:36;2.38;;;1.30;;
62880;SDS011;48969;49.934;8.596;2023-07-20T12:55:03;2.05;;;1.63;;
62880;SDS011;48969;49.934;8.596;2023-07-20T12:57:30;4.25;;;1.38;;
62880;SDS011;48969;49.934;8.596;2023-07-20T12:59:55;2.35;;;1.63;;
62880;SDS011;48969;49.934;8.596;2023-07-20T13:02:20;2.13;;;1.52;;
62880;SDS011;48969;49.934;8.596;2023-07-20T13:04:45;3.72;;;1.70;;
62880;SDS011;48969;49.934;8.596;2023-07-20T13:07:11;5.05;;;1.92;;
62880;SDS011;48969;49.934;8.596;2023-07-20T13:09:37;3.20;;;1.45;;
62880;SDS011;48969;49.934;8.596;2023-07-20T13:12:02;2.13;;;1.60;;
62880;SDS011;48969;49.934;8.596;2023-07-20T13:14:28;1.80;;;1.38;;
62880;SDS011;48969;49.934;8.596;2023-07-20T13:16:54;2.00;;;1.63;;
62880;SDS011;48969;49.934;8.596;2023-07-20T13:19:20;1.77;;;1.40;;
62880;SDS011;48969;49.934;8.596;2023-07-20T13:21:46;1.48;;;1.38;;
62880;SDS011;48969;49.934;8.596;2023-07-20T13:24:12;3.30;;;2.00;;
62880;SDS011;48969;49.934;8.596;2023-07-20T13:26:37;2.35;;;1.50;;
62880;SDS011;48969;49.934;8.596;2023-07-20T13:29:02;1.90;;;1.20;;
62880;SDS011;48969;49.934;8.596;2023-07-20T13:31:28;2.90;;;1.40;;
62880;SDS011;48969;49.934;8.596;2023-07-20T13:33:53;1.63;;;1.52;;
62880;SDS011;48969;49.934;8.596;2023-07-20T13:36:19;1.55;;;1.45;;
62880;SDS011;48969;49.934;8.596;2023-07-20T13:38:45;3.58;;;1.80;;
62880;SDS011;48969;49.934;8.596;2023-07-20T13:41:11;2.60;;;1.95;;
62880;SDS011;48969;49.934;8.596;2023-07-20T13:43:36;3.35;;;1.45;;
62880;SDS011;48969;49.934;8.596;2023-07-20T13:46:02;2.03;;;1.75;;
62880;SDS011;48969;49.934;8.596;2023-07-20T13:48:27;3.15;;;1.45;;
62880;SDS011;48969;49.934;8.596;2023-07-20T13:50:53;2.80;;;1.60;;
62880;SDS011;48969;49.934;8.596;2023-07-20T13:53:19;1.60;;;1.35;;
62880;SDS011;48969;49.934;8.596;2023-07-20T13:55:44;2.40;;;1.67;;
62880;SDS011;48969;49.934;8.596;2023-07-20T13:58:09;3.25;;;1.58;;
62880;SDS011;48969;49.934;8.596;2023-07-20T14:00:35;1.85;;;1.40;;
62880;SDS011;48969;49.934;8.596;2023-07-20T14:03:00;2.30;;;1.52;;
62880;SDS011;48969;49.934;8.596;2023-07-20T14:05:26;2.33;;;1.50;;
62880;SDS011;48969;49.934;8.596;2023-07-20T14:07:51;2.15;;;1.45;;
62880;SDS011;48969;49.934;8.596;2023-07-20T14:10:16;2.67;;;1.60;;
62880;SDS011;48969;49.934;8.596;2023-07-20T14:12:42;3.10;;;1.70;;
62880;SDS011;48969;49.934;8.596;2023-07-20T14:15:09;2.90;;;1.55;;
62880;SDS011;48969;49.934;8.596;2023-07-20T14:17:34;3.15;;;1.60;;
62880;SDS011;48969;49.934;8.596;2023-07-20T14:20:00;2.15;;;1.60;;
62880;SDS011;48969;49.934;8.596;2023-07-20T14:22:25;3.22;;;1.73;;
62880;SDS011;48969;49.934;8.596;2023-07-20T14:24:51;1.52;;;1.40;;
62880;SDS011;48969;49.934;8.596;2023-07-20T14:27:16;2.22;;;1.40;;
62880;SDS011;48969;49.934;8.596;2023-07-20T14:29:41;3.28;;;1.45;;
62880;SDS011;48969;49.934;8.596;2023-07-20T14:32:06;1.60;;;1.48;;
62880;SDS011;48969;49.934;8.596;2023-07-20T14:34:32;2.10;;;1.50;;
62880;SDS011;48969;49.934;8.596;2023-07-20T14:36:59;4.18;;;1.63;;
62880;SDS011;48969;49.934;8.596;2023-07-20T14:39:25;2.08;;;1.42;;
62880;SDS011;48969;49.934;8.596;2023-07-20T14:41:50;1.63;;;1.50;;
62880;SDS011;48969;49.934;8.596;2023-07-20T14:44:16;2.38;;;1.50;;
62880;SDS011;48969;49.934;8.596;2023-07-20T14:46:41;2.17;;;1.63;;
62880;SDS011;48969;49.934;8.596;2023-07-20T14:49:07;2.50;;;1.50;;
62880;SDS011;48969;49.934;8.596;2023-07-20T14:51:32;3.22;;;1.50;;
62880;SDS011;48969;49.934;8.596;2023-07-20T14:53:58;1.52;;;1.33;;
62880;SDS011;48969;49.934;8.596;2023-07-20T14:56:25;1.67;;;1.25;;
62880;SDS011;48969;49.934;8.596;2023-07-20T14:58:50;2.90;;;1.80;;
62880;SDS011;48969;49.934;8.596;2023-07-20T15:01:15;2.75;;;1.67;;
62880;SDS011;48969;49.934;8.596;2023-07-20T15:03:41;2.83;;;1.50;;
62880;SDS011;48969;49.934;8.596;2023-07-20T15:06:10;2.03;;;1.50;;
62880;SDS011;48969;49.934;8.596;2023-07-20T15:08:36;1.98;;;1.48;;